createdAt,value
2023-02-04T00:00:17.253Z,0.22
2023-02-04T00:02:43.990Z,0.20
2023-02-04T00:05:11.940Z,0.40
2023-02-04T00:07:39.558Z,0.40
2023-02-04T00:10:08.517Z,0.40
2023-02-04T00:12:35.451Z,0.30
2023-02-04T00:15:02.739Z,0.50
2023-02-04T00:17:29.798Z,0.47
2023-02-04T00:19:56.587Z,0.35
2023-02-04T00:22:23.640Z,0.43
2023-02-04T00:24:50.807Z,0.40
2023-02-04T00:27:17.789Z,0.40
2023-02-04T00:29:44.859Z,0.40
2023-02-04T00:32:13.352Z,0.40
2023-02-04T00:34:40.048Z,0.70
2023-02-04T00:37:07.248Z,0.50
2023-02-04T00:39:33.930Z,0.60
2023-02-04T00:42:00.733Z,0.50
2023-02-04T00:44:27.562Z,0.80
2023-02-04T00:46:54.237Z,0.50
2023-02-04T00:49:20.873Z,0.80
2023-02-04T00:51:47.578Z,0.70
2023-02-04T00:54:17.506Z,0.70
2023-02-04T00:56:46.207Z,1.00
2023-02-04T00:59:12.998Z,1.05
2023-02-04T01:01:40.691Z,0.98
2023-02-04T01:04:07.398Z,1.35
2023-02-04T01:06:34.534Z,1.02
2023-02-04T01:09:02.039Z,1.10
2023-02-04T01:11:29.984Z,1.38
2023-02-04T01:13:56.838Z,1.30
2023-02-04T01:16:23.927Z,1.30
2023-02-04T01:18:50.598Z,1.00
2023-02-04T01:21:17.913Z,0.80
2023-02-04T01:23:44.621Z,1.30
2023-02-04T01:26:11.290Z,1.20
2023-02-04T01:28:37.962Z,1.60
2023-02-04T01:31:04.682Z,0.90
2023-02-04T01:33:31.373Z,0.90
2023-02-04T01:35:58.188Z,0.93
2023-02-04T01:38:24.872Z,1.00
2023-02-04T01:40:51.944Z,0.93
2023-02-04T01:43:19.483Z,0.93
2023-02-04T01:45:46.636Z,0.80
2023-02-04T01:48:20.193Z,0.80
2023-02-04T01:50:49.278Z,0.60
2023-02-04T01:53:25.254Z,0.70
2023-02-04T01:55:52.757Z,0.70
2023-02-04T01:58:19.689Z,0.90
2023-02-04T02:00:46.669Z,0.50
2023-02-04T02:03:13.793Z,1.00
2023-02-04T02:05:42.215Z,0.95
2023-02-04T02:08:09.747Z,0.52
2023-02-04T02:10:39.923Z,0.60
2023-02-04T02:13:08.696Z,0.63
2023-02-04T02:15:39.947Z,0.60
2023-02-04T02:18:07.420Z,0.73
2023-02-04T02:20:34.940Z,0.50
2023-02-04T02:23:10.953Z,0.50
2023-02-04T02:25:37.745Z,0.50
2023-02-04T02:28:11.435Z,0.73
2023-02-04T02:30:40.427Z,0.55
2023-02-04T02:33:08.355Z,0.77
2023-02-04T02:35:35.197Z,0.55
2023-02-04T02:38:02.027Z,0.43
2023-02-04T02:40:29.031Z,0.65
2023-02-04T02:42:56.028Z,0.60
2023-02-04T02:45:28.399Z,0.60
2023-02-04T02:47:57.473Z,0.60
2023-02-04T02:50:27.495Z,0.60
2023-02-04T02:52:54.799Z,0.50
2023-02-04T02:55:24.768Z,0.60
2023-02-04T02:57:53.116Z,0.70
2023-02-04T03:00:28.844Z,0.80
2023-02-04T03:03:10.867Z,1.50
2023-02-04T03:05:42.194Z,0.70
2023-02-04T03:08:12.725Z,1.30
2023-02-04T03:10:39.467Z,0.80
2023-02-04T03:13:06.358Z,1.10
2023-02-04T03:15:33.530Z,0.93
2023-02-04T03:18:01.095Z,0.82
2023-02-04T03:20:31.066Z,1.10
2023-02-04T03:22:58.676Z,1.70
2023-02-04T03:25:28.150Z,1.10
2023-02-04T03:27:58.456Z,1.23
2023-02-04T03:30:26.563Z,1.15
2023-02-04T03:32:53.806Z,1.10
2023-02-04T03:35:20.811Z,1.25
2023-02-04T03:37:47.601Z,1.05
2023-02-04T03:40:15.100Z,1.00
2023-02-04T03:42:41.877Z,0.82
2023-02-04T03:45:08.796Z,0.93
2023-02-04T03:47:35.448Z,0.55
2023-02-04T03:50:02.142Z,0.70
2023-02-04T03:52:28.780Z,0.68
2023-02-04T03:54:55.410Z,0.70
2023-02-04T03:57:22.184Z,0.52
2023-02-04T03:59:48.823Z,0.70
2023-02-04T04:02:15.450Z,0.40
2023-02-04T04:04:42.054Z,0.63
2023-02-04T04:07:08.742Z,0.40
2023-02-04T04:09:35.359Z,0.40
2023-02-04T04:12:03.873Z,0.90
2023-02-04T04:14:30.534Z,0.50
2023-02-04T04:16:57.196Z,0.50
2023-02-04T04:19:24.920Z,0.60
2023-02-04T04:21:51.630Z,0.70
2023-02-04T04:24:18.331Z,0.68
2023-02-04T04:26:45.022Z,0.40
2023-02-04T04:29:11.786Z,0.85
2023-02-04T04:31:38.583Z,0.50
2023-02-04T04:34:05.255Z,0.57
2023-02-04T04:36:31.974Z,0.47
2023-02-04T04:38:59.700Z,0.52
2023-02-04T04:41:26.440Z,0.40
2023-02-04T04:43:53.107Z,0.30
2023-02-04T04:46:19.780Z,0.38
2023-02-04T04:48:46.400Z,0.45
2023-02-04T04:51:12.999Z,0.32
2023-02-04T04:53:39.647Z,0.20
2023-02-04T04:56:06.518Z,0.40
2023-02-04T04:58:33.213Z,0.47
2023-02-04T05:00:59.906Z,0.35
2023-02-04T05:03:27.218Z,0.30
2023-02-04T05:05:53.838Z,0.28
2023-02-04T05:08:21.016Z,0.30
2023-02-04T05:10:47.782Z,0.50
2023-02-04T05:13:14.720Z,0.20
2023-02-04T05:15:42.370Z,0.25
2023-02-04T05:18:09.144Z,0.30
2023-02-04T05:20:35.813Z,0.20
2023-02-04T05:23:05.403Z,0.10
2023-02-04T05:25:32.332Z,0.10
2023-02-04T05:27:59.050Z,0.10
2023-02-04T05:30:25.753Z,0.10
2023-02-04T05:32:52.454Z,0.20
2023-02-04T05:35:19.243Z,0.13
2023-02-04T05:37:45.932Z,0.20
2023-02-04T05:40:13.717Z,0.35
2023-02-04T05:42:41.883Z,0.30
2023-02-04T05:45:16.568Z,0.10
2023-02-04T05:47:43.204Z,0.20
2023-02-04T05:50:10.659Z,0.13
2023-02-04T05:52:37.823Z,0.82
2023-02-04T05:55:04.836Z,0.95
2023-02-04T05:57:31.451Z,0.80
2023-02-04T05:59:58.107Z,0.80
2023-02-04T06:02:24.971Z,1.02
2023-02-04T06:04:51.577Z,1.10
2023-02-04T06:07:18.238Z,2.50
2023-02-04T06:09:44.899Z,1.88
2023-02-04T06:12:11.548Z,1.70
2023-02-04T06:14:38.191Z,2.10
2023-02-04T06:17:04.866Z,1.80
2023-02-04T06:19:31.548Z,2.65
2023-02-04T06:21:58.259Z,1.60
2023-02-04T06:24:24.871Z,1.90
2023-02-04T06:26:51.528Z,2.20
2023-02-04T06:29:18.198Z,2.10
2023-02-04T06:31:45.003Z,2.00
2023-02-04T06:34:11.865Z,1.85
2023-02-04T06:36:38.475Z,2.45
2023-02-04T06:39:05.097Z,3.22
2023-02-04T06:41:31.728Z,2.90
2023-02-04T06:43:58.362Z,2.63
2023-02-04T06:46:25.002Z,2.55
2023-02-04T06:48:51.709Z,4.03
2023-02-04T06:51:18.336Z,2.88
2023-02-04T06:53:46.013Z,2.78
2023-02-04T06:56:12.805Z,2.80
2023-02-04T06:58:39.533Z,1.48
2023-02-04T07:01:06.413Z,1.58
2023-02-04T07:03:33.202Z,1.77
2023-02-04T07:05:59.847Z,1.67
2023-02-04T07:08:26.592Z,1.75
2023-02-04T07:10:53.175Z,1.05
2023-02-04T07:13:19.895Z,1.40
2023-02-04T07:15:46.638Z,1.08
2023-02-04T07:18:13.298Z,1.17
2023-02-04T07:20:39.913Z,1.30
2023-02-04T07:23:06.532Z,1.10
2023-02-04T07:25:33.303Z,1.35
2023-02-04T07:28:01.820Z,2.33
2023-02-04T07:30:28.579Z,1.98
2023-02-04T07:32:55.327Z,5.93
2023-02-04T07:35:21.993Z,5.43
2023-02-04T07:37:48.653Z,4.65
2023-02-04T07:40:15.501Z,5.57
2023-02-04T07:42:42.233Z,2.38
2023-02-04T07:45:15.466Z,2.03
2023-02-04T07:47:42.128Z,1.73
2023-02-04T07:50:09.268Z,2.08
2023-02-04T07:52:35.915Z,4.43
2023-02-04T07:55:02.735Z,2.05
2023-02-04T07:57:31.063Z,1.58
2023-02-04T07:59:57.796Z,0.70
2023-02-04T08:02:24.682Z,0.60
2023-02-04T08:04:51.371Z,0.60
2023-02-04T08:07:18.025Z,0.73
2023-02-04T08:09:44.687Z,1.10
2023-02-04T08:12:11.336Z,3.13
2023-02-04T08:14:37.965Z,1.77
2023-02-04T08:17:04.870Z,1.15
2023-02-04T08:19:31.462Z,1.00
2023-02-04T08:21:58.137Z,1.25
2023-02-04T08:24:24.752Z,1.13
2023-02-04T08:26:51.900Z,1.50
2023-02-04T08:29:18.878Z,2.08
2023-02-04T08:31:47.636Z,4.32
2023-02-04T08:34:14.611Z,4.78
2023-02-04T08:36:41.337Z,5.95
2023-02-04T08:39:07.999Z,3.42
2023-02-04T08:41:34.808Z,1.50
2023-02-04T08:44:01.572Z,1.42
2023-02-04T08:46:28.299Z,0.70
2023-02-04T08:48:55.086Z,2.30
2023-02-04T08:51:21.773Z,3.45
2023-02-04T08:53:48.489Z,1.80
2023-02-04T08:56:17.942Z,1.20
2023-02-04T08:58:45.169Z,1.80
2023-02-04T09:01:12.103Z,3.28
2023-02-04T09:03:39.345Z,2.15
2023-02-04T09:06:07.157Z,3.28
2023-02-04T09:08:33.903Z,3.10
2023-02-04T09:11:00.784Z,2.65
2023-02-04T09:13:27.608Z,2.50
2023-02-04T09:15:54.567Z,2.70
2023-02-04T09:18:22.513Z,1.70
2023-02-04T09:20:50.139Z,2.03
2023-02-04T09:23:17.162Z,2.53
2023-02-04T09:25:45.521Z,2.90
2023-02-04T09:28:14.164Z,1.85
2023-02-04T09:30:42.450Z,2.80
2023-02-04T09:33:11.397Z,2.97
2023-02-04T09:35:38.456Z,2.50
2023-02-04T09:38:05.269Z,2.97
2023-02-04T09:40:36.796Z,2.67
2023-02-04T09:43:05.549Z,3.13
2023-02-04T09:45:36.486Z,3.40
2023-02-04T09:48:05.296Z,3.00
2023-02-04T09:50:35.329Z,3.58
2023-02-04T09:53:05.562Z,4.35
2023-02-04T09:55:35.329Z,4.10
2023-02-04T09:58:03.012Z,4.72
2023-02-04T10:00:31.360Z,3.80
2023-02-04T10:03:02.356Z,5.00
2023-02-04T10:05:32.106Z,4.27
2023-02-04T10:07:59.267Z,3.83
2023-02-04T10:10:27.628Z,3.25
2023-02-04T10:12:57.135Z,2.88
2023-02-04T10:15:23.787Z,2.97
2023-02-04T10:17:54.712Z,2.03
2023-02-04T10:20:23.813Z,1.80
2023-02-04T10:22:54.111Z,1.58
2023-02-04T10:25:23.371Z,1.95
2023-02-04T10:28:00.584Z,2.15
2023-02-04T10:30:35.752Z,2.30
2023-02-04T10:33:13.985Z,2.20
2023-02-04T10:35:49.564Z,1.80
2023-02-04T10:38:16.260Z,2.20
2023-02-04T10:40:47.328Z,2.42
2023-02-04T10:43:22.421Z,1.70
2023-02-04T10:45:58.200Z,2.08
2023-02-04T10:48:25.397Z,2.20
2023-02-04T10:50:52.138Z,2.70
2023-02-04T10:53:39.753Z,3.40
2023-02-04T10:56:16.131Z,2.50
2023-02-04T10:58:43.209Z,2.53
2023-02-04T11:01:11.969Z,3.65
2023-02-04T11:03:40.401Z,2.95
2023-02-04T11:06:25.310Z,3.80
2023-02-04T11:08:53.596Z,3.10
2023-02-04T11:11:26.220Z,2.90
2023-02-04T11:13:54.614Z,2.63
2023-02-04T11:16:25.482Z,3.90
2023-02-04T11:18:58.479Z,3.47
2023-02-04T11:21:33.986Z,3.45
2023-02-04T11:24:13.808Z,2.75
2023-02-04T11:26:41.257Z,3.50
2023-02-04T11:29:09.275Z,3.33
2023-02-04T11:31:46.534Z,2.95
2023-02-04T11:34:16.216Z,2.70
2023-02-04T11:37:15.179Z,2.90
2023-02-04T11:39:47.873Z,3.28
2023-02-04T11:42:37.766Z,3.50
2023-02-04T11:45:17.713Z,4.13
2023-02-04T11:47:44.661Z,3.20
2023-02-04T11:50:19.801Z,3.03
2023-02-04T11:52:46.488Z,3.95
2023-02-04T11:55:13.440Z,3.58
2023-02-04T11:57:44.320Z,3.90
2023-02-04T12:00:26.759Z,3.10
2023-02-04T12:02:59.720Z,3.00
2023-02-04T12:05:40.949Z,4.15
2023-02-04T12:08:13.266Z,3.63
2023-02-04T12:10:50.465Z,3.28
2023-02-04T12:13:24.731Z,3.50
2023-02-04T12:16:05.171Z,3.53
2023-02-04T12:18:34.224Z,3.35
2023-02-04T12:21:01.690Z,4.80
2023-02-04T12:23:29.640Z,3.53
2023-02-04T12:25:57.041Z,4.32
2023-02-04T12:28:24.524Z,3.42
2023-02-04T12:30:51.384Z,4.55
2023-02-04T12:33:18.323Z,3.10
2023-02-04T12:35:44.966Z,3.05
2023-02-04T12:38:11.781Z,2.95
2023-02-04T12:40:38.542Z,4.20
2023-02-04T12:43:05.850Z,3.00
2023-02-04T12:45:33.476Z,3.42
2023-02-04T12:48:04.269Z,3.13
2023-02-04T12:50:30.941Z,2.88
2023-02-04T12:52:59.762Z,3.65
2023-02-04T12:55:28.344Z,2.50
2023-02-04T12:57:56.294Z,3.55
2023-02-04T13:00:23.990Z,3.47
2023-02-04T13:02:50.964Z,2.60
2023-02-04T13:05:18.554Z,2.90
2023-02-04T13:07:45.256Z,2.25
2023-02-04T13:10:13.510Z,2.50
2023-02-04T13:12:41.592Z,2.47
2023-02-04T13:15:09.225Z,2.88
2023-02-04T13:17:35.954Z,3.25
2023-02-04T13:20:03.334Z,2.70
2023-02-04T13:22:30.178Z,2.08
2023-02-04T13:24:56.867Z,3.17
2023-02-04T13:27:23.799Z,2.90
2023-02-04T13:29:50.582Z,3.17
2023-02-04T13:32:17.371Z,1.95
2023-02-04T13:34:44.434Z,2.60
2023-02-04T13:37:11.661Z,2.80
2023-02-04T13:39:38.834Z,2.20
2023-02-04T13:42:05.964Z,2.38
2023-02-04T13:44:33.908Z,2.00
2023-02-04T13:47:00.949Z,2.08
2023-02-04T13:49:27.996Z,1.75
2023-02-04T13:51:55.133Z,1.75
2023-02-04T13:54:22.100Z,1.80
2023-02-04T13:56:49.083Z,2.15
2023-02-04T13:59:15.960Z,2.20
2023-02-04T14:01:42.689Z,2.25
2023-02-04T14:04:09.336Z,2.08
2023-02-04T14:06:43.302Z,2.47
2023-02-04T14:09:14.887Z,2.45
2023-02-04T14:11:41.567Z,2.13
2023-02-04T14:14:08.766Z,2.05
2023-02-04T14:16:37.785Z,2.75
2023-02-04T14:19:05.163Z,3.63
2023-02-04T14:21:31.893Z,2.00
2023-02-04T14:23:58.588Z,2.40
2023-02-04T14:26:25.208Z,2.63
2023-02-04T14:28:51.875Z,2.00
2023-02-04T14:31:19.038Z,2.15
2023-02-04T14:33:46.621Z,1.98
2023-02-04T14:36:14.311Z,1.88
2023-02-04T14:38:41.206Z,1.70
2023-02-04T14:41:08.060Z,2.75
2023-02-04T14:43:37.480Z,2.25
2023-02-04T14:46:07.217Z,2.33
2023-02-04T14:48:34.358Z,2.20
2023-02-04T14:51:01.644Z,2.03
2023-02-04T14:53:29.017Z,2.03
2023-02-04T14:55:59.744Z,2.22
2023-02-04T14:58:28.061Z,1.60
2023-02-04T15:00:55.121Z,2.17
2023-02-04T15:03:22.285Z,1.90
2023-02-04T15:05:49.004Z,2.80
2023-02-04T15:08:16.280Z,2.08
2023-02-04T15:10:43.170Z,2.03
2023-02-04T15:13:10.142Z,2.00
2023-02-04T15:15:37.738Z,2.08
2023-02-04T15:18:05.820Z,2.42
2023-02-04T15:20:33.054Z,2.03
2023-02-04T15:23:00.900Z,1.83
2023-02-04T15:25:27.666Z,2.80
2023-02-04T15:27:54.445Z,2.85
2023-02-04T15:30:21.392Z,3.20
2023-02-04T15:32:48.466Z,3.35
2023-02-04T15:35:15.689Z,3.72
2023-02-04T15:37:42.409Z,3.60
2023-02-04T15:40:11.513Z,3.75
2023-02-04T15:42:38.448Z,5.68
2023-02-04T15:45:06.627Z,4.90
2023-02-04T15:47:33.391Z,5.80
2023-02-04T15:50:00.226Z,6.20
2023-02-04T15:52:29.111Z,9.93
2023-02-04T15:54:56.222Z,11.63
2023-02-04T15:57:22.987Z,9.23
2023-02-04T15:59:49.700Z,7.30
2023-02-04T16:02:16.752Z,7.78
2023-02-04T16:04:45.375Z,4.95
2023-02-04T16:07:12.438Z,6.57
2023-02-04T16:09:39.209Z,6.40
2023-02-04T16:12:06.323Z,6.13
2023-02-04T16:14:33.108Z,6.30
2023-02-04T16:17:01.987Z,6.10
2023-02-04T16:19:29.632Z,5.88
2023-02-04T16:21:56.460Z,5.45
2023-02-04T16:24:23.356Z,4.35
2023-02-04T16:26:49.981Z,4.50
2023-02-04T16:29:17.380Z,3.95
2023-02-04T16:31:44.464Z,4.30
2023-02-04T16:34:11.171Z,3.88
2023-02-04T16:36:37.870Z,4.93
2023-02-04T16:39:04.663Z,4.80
2023-02-04T16:41:31.444Z,3.33
2023-02-04T16:43:59.166Z,4.07
2023-02-04T16:46:26.104Z,3.10
2023-02-04T16:48:52.806Z,2.33
2023-02-04T16:51:20.474Z,2.30
2023-02-04T16:53:47.526Z,2.22
2023-02-04T16:56:14.248Z,2.95
2023-02-04T16:58:40.992Z,3.38
2023-02-04T17:01:07.734Z,2.50
2023-02-04T17:03:34.677Z,8.13
2023-02-04T17:06:02.397Z,9.98
2023-02-04T17:08:29.652Z,4.82
2023-02-04T17:11:15.403Z,5.00
2023-02-04T17:13:42.100Z,6.07
2023-02-04T17:16:08.903Z,7.25
2023-02-04T17:18:35.589Z,5.13
2023-02-04T17:21:02.893Z,5.30
2023-02-04T17:23:29.635Z,6.30
2023-02-04T17:25:56.424Z,5.88
2023-02-04T17:28:24.271Z,6.63
2023-02-04T17:30:51.084Z,5.60
2023-02-04T17:33:18.075Z,5.85
2023-02-04T17:35:45.662Z,5.15
2023-02-04T17:38:12.577Z,3.90
2023-02-04T17:40:39.261Z,3.88
2023-02-04T17:43:07.551Z,3.80
2023-02-04T17:45:35.504Z,3.20
2023-02-04T17:48:02.924Z,3.38
2023-02-04T17:50:29.857Z,5.20
2023-02-04T17:52:56.832Z,4.72
2023-02-04T17:55:29.615Z,5.15
2023-02-04T17:58:02.416Z,5.25
2023-02-04T18:00:30.965Z,6.70
2023-02-04T18:02:58.400Z,5.72
2023-02-04T18:05:28.678Z,7.00
2023-02-04T18:08:16.147Z,6.78
2023-02-04T18:10:45.703Z,7.88
2023-02-04T18:13:23.567Z,9.13
2023-02-04T18:15:54.454Z,8.45
2023-02-04T18:18:28.137Z,9.00
2023-02-04T18:21:16.838Z,10.27
2023-02-04T18:23:47.165Z,9.75
2023-02-04T18:26:18.959Z,9.98
2023-02-04T18:28:47.831Z,13.68
2023-02-04T18:31:18.945Z,18.83
2023-02-04T18:33:46.020Z,20.85
2023-02-04T18:36:20.929Z,19.73
2023-02-04T18:38:48.899Z,21.25
2023-02-04T18:41:18.674Z,20.08
2023-02-04T18:43:50.908Z,22.70
2023-02-04T18:46:41.927Z,24.08
2023-02-04T18:49:33.027Z,22.33
2023-02-04T18:52:15.236Z,21.70
2023-02-04T18:54:47.597Z,13.20
2023-02-04T18:57:16.036Z,15.68
2023-02-04T18:59:43.154Z,17.33
2023-02-04T19:02:36.866Z,16.20
2023-02-04T19:05:25.832Z,14.23
2023-02-04T19:08:14.799Z,13.77
2023-02-04T19:10:42.369Z,12.85
2023-02-04T19:13:27.538Z,12.73
2023-02-04T19:15:56.561Z,14.50
2023-02-04T19:18:39.137Z,14.90
2023-02-04T19:21:15.315Z,14.23
2023-02-04T19:23:42.308Z,15.48
2023-02-04T19:26:32.612Z,13.65
2023-02-04T19:29:00.020Z,12.85
2023-02-04T19:31:36.728Z,12.55
2023-02-04T19:34:21.152Z,14.18
2023-02-04T19:36:48.197Z,14.88
2023-02-04T19:39:40.023Z,14.00
2023-02-04T19:42:25.631Z,13.35
2023-02-04T19:44:52.759Z,12.43
2023-02-04T19:47:36.407Z,11.80
2023-02-04T19:50:21.869Z,12.20
2023-02-04T19:53:18.509Z,12.85
2023-02-04T19:55:47.170Z,13.00
2023-02-04T19:58:41.891Z,13.93
2023-02-04T20:01:19.608Z,12.43
2023-02-04T20:03:52.884Z,13.98
2023-02-04T20:06:30.316Z,13.23
2023-02-04T20:08:58.488Z,11.07
2023-02-04T20:11:35.067Z,12.85
2023-02-04T20:14:14.498Z,11.18
2023-02-04T20:17:00.140Z,13.25
2023-02-04T20:19:35.665Z,12.73
2023-02-04T20:22:38.920Z,12.65
2023-02-04T20:25:57.204Z,14.45
2023-02-04T20:28:35.662Z,13.18
2023-02-04T20:31:03.369Z,14.52
2023-02-04T20:33:35.859Z,14.82
2023-02-04T20:36:24.975Z,13.23
2023-02-04T20:38:58.709Z,13.85
2023-02-04T20:41:25.460Z,13.00
2023-02-04T20:43:52.388Z,16.15
2023-02-04T20:46:25.266Z,12.20
2023-02-04T20:48:52.754Z,11.38
2023-02-04T20:51:24.614Z,13.98
2023-02-04T20:54:07.383Z,14.05
2023-02-04T20:56:40.163Z,17.65
2023-02-04T20:59:16.026Z,15.23
2023-02-04T21:01:48.870Z,15.35
2023-02-04T21:04:23.346Z,17.05
2023-02-04T21:06:52.753Z,14.55
2023-02-04T21:09:26.772Z,15.65
2023-02-04T21:11:55.552Z,19.73
2023-02-04T21:14:23.953Z,19.02
2023-02-04T21:16:50.925Z,16.23
2023-02-04T21:19:17.656Z,17.77
2023-02-04T21:21:44.778Z,16.60
2023-02-04T21:24:11.777Z,14.10
2023-02-04T21:26:38.634Z,17.00
2023-02-04T21:29:05.331Z,13.23
2023-02-04T21:31:32.649Z,16.23
2023-02-04T21:33:59.937Z,16.38
2023-02-04T21:36:29.573Z,13.40
2023-02-04T21:38:57.301Z,16.75
2023-02-04T21:41:24.717Z,12.35
2023-02-04T21:43:51.826Z,13.23
2023-02-04T21:46:19.127Z,10.35
2023-02-04T21:48:46.318Z,12.10
2023-02-04T21:51:14.819Z,13.05
2023-02-04T21:53:42.211Z,14.45
2023-02-04T21:56:10.001Z,11.00
2023-02-04T21:58:38.680Z,11.25
2023-02-04T22:01:06.020Z,12.93
2023-02-04T22:03:33.162Z,10.82
2023-02-04T22:05:59.841Z,11.50
2023-02-04T22:08:26.575Z,11.73
2023-02-04T22:10:53.511Z,11.73
2023-02-04T22:13:20.164Z,12.68
2023-02-04T22:15:48.023Z,13.85
2023-02-04T22:18:14.957Z,12.40
2023-02-04T22:20:41.695Z,12.10
2023-02-04T22:23:08.434Z,10.85
2023-02-04T22:25:35.427Z,11.02
2023-02-04T22:28:02.325Z,10.07
2023-02-04T22:30:29.344Z,7.85
2023-02-04T22:32:56.722Z,11.23
2023-02-04T22:35:23.620Z,11.15
2023-02-04T22:37:50.330Z,10.85
2023-02-04T22:40:17.200Z,9.68
2023-02-04T22:42:43.930Z,10.85
2023-02-04T22:45:10.712Z,7.45
2023-02-04T22:47:37.532Z,9.18
2023-02-04T22:50:04.368Z,9.93
2023-02-04T22:52:31.733Z,9.07
2023-02-04T22:54:58.625Z,7.97
2023-02-04T22:57:25.822Z,7.95
2023-02-04T22:59:52.709Z,7.30
2023-02-04T23:02:22.126Z,8.65
2023-02-04T23:04:48.874Z,7.72
2023-02-04T23:07:15.556Z,7.28
2023-02-04T23:09:42.282Z,9.23
2023-02-04T23:12:15.139Z,8.57
2023-02-04T23:14:47.121Z,8.13
2023-02-04T23:17:15.124Z,9.75
2023-02-04T23:19:42.448Z,8.23
2023-02-04T23:22:11.149Z,8.98
2023-02-04T23:24:39.111Z,7.75
2023-02-04T23:27:06.278Z,7.40
2023-02-04T23:29:35.337Z,7.90
2023-02-04T23:32:03.317Z,7.97
2023-02-04T23:34:30.959Z,6.75
2023-02-04T23:36:57.610Z,6.88
2023-02-04T23:39:24.509Z,7.03
2023-02-04T23:41:52.637Z,7.18
2023-02-04T23:44:19.447Z,8.30
2023-02-04T23:46:46.433Z,6.63
2023-02-04T23:49:13.891Z,7.15
2023-02-04T23:51:41.006Z,6.30
2023-02-04T23:54:07.643Z,4.95
2023-02-04T23:56:34.485Z,6.20
2023-02-04T23:59:01.649Z,5.47
